Time;durP1;ratioP1;P1;durP2;ratioP2;P2;SDS_P1;SDS_P2;PMS_P1;PMS_P2;Temp;Humidity;BMP_temperature;BMP_pressure;BME280_temperature;BME280_humidity;BME280_pressure;Samples;Min_cycle;Max_cycle;Signal;HPM_P1;HPM_P2
2022/06/06 00:00:50;;;;;;;11.70;5.75;;;15.10;99.90;;;;;;4976456;28;20058;-78
2022/06/06 00:03:18;;;;;;;13.77;6.85;;;15.10;99.90;;;;;;4984372;28;20086;-78
2022/06/06 00:05:47;;;;;;;10.65;5.80;;;15.10;99.90;;;;;;4963615;28;20700;-78
2022/06/06 00:08:15;;;;;;;12.05;6.40;;;15.10;99.90;;;;;;4969124;28;20204;-78
2022/06/06 00:10:45;;;;;;;10.63;5.95;;;15.10;99.90;;;;;;4984182;28;20050;-78
2022/06/06 00:13:13;;;;;;;11.80;6.50;;;15.10;99.90;;;;;;4966109;28;20369;-78
2022/06/06 00:15:39;;;;;;;12.27;6.15;;;15.00;99.90;;;;;;4958095;28;20510;-78
2022/06/06 00:18:05;;;;;;;13.00;6.18;;;15.00;99.90;;;;;;4955632;28;20054;-78
2022/06/06 00:20:31;;;;;;;11.30;6.15;;;15.00;99.90;;;;;;4962950;28;20492;-77
2022/06/06 00:22:58;;;;;;;14.73;6.95;;;15.00;99.90;;;;;;4965872;28;20054;-78
2022/06/06 00:25:24;;;;;;;13.40;7.28;;;15.00;99.90;;;;;;4969126;28;20175;-78
2022/06/06 00:27:50;;;;;;;14.55;6.78;;;14.90;99.90;;;;;;4983586;28;20826;-78
2022/06/06 00:30:16;;;;;;;15.80;6.97;;;14.90;99.90;;;;;;4959985;28;20515;-76
2022/06/06 00:35:26;;;;;;;13.20;6.80;;;14.90;99.90;;;;;;4969099;28;20058;-77
2022/06/06 00:37:52;;;;;;;13.68;5.82;;;14.90;99.90;;;;;;4967672;28;20805;-77
2022/06/06 00:40:21;;;;;;;10.60;5.45;;;14.80;99.90;;;;;;4984500;28;20662;-77
2022/06/06 00:42:47;;;;;;;13.23;5.95;;;14.80;99.90;;;;;;4982797;28;20477;-77
2022/06/06 00:45:29;;;;;;;11.13;5.28;;;14.80;99.90;;;;;;4966496;28;20539;-76
2022/06/06 00:48:15;;;;;;;10.13;5.25;;;14.80;99.90;;;;;;4945654;28;20496;-77
2022/06/06 00:51:09;;;;;;;11.25;5.75;;;14.70;99.90;;;;;;4965475;28;20051;-77
2022/06/06 00:53:40;;;;;;;9.93;5.50;;;14.70;99.90;;;;;;4972386;28;20145;-77
2022/06/06 00:56:37;;;;;;;12.65;6.10;;;14.70;99.90;;;;;;4961866;28;20054;-77
2022/06/06 00:59:10;;;;;;;10.48;5.88;;;14.70;99.90;;;;;;4963135;28;20058;-77
2022/06/06 01:01:37;;;;;;;12.88;5.85;;;14.60;99.90;;;;;;4982771;28;20054;-77
2022/06/06 01:04:04;;;;;;;9.98;6.15;;;14.60;99.90;;;;;;4959306;28;20162;-76
2022/06/06 01:06:33;;;;;;;12.70;5.90;;;14.60;99.90;;;;;;4965899;28;20472;-77
2022/06/06 01:09:00;;;;;;;11.32;5.93;;;14.60;99.90;;;;;;4966655;28;20193;-76
2022/06/06 01:11:26;;;;;;;12.32;5.30;;;14.60;99.90;;;;;;4965570;28;20042;-77
2022/06/06 01:13:53;;;;;;;17.08;6.88;;;14.60;99.90;;;;;;4967510;28;20042;-77
2022/06/06 01:16:32;;;;;;;11.18;5.60;;;14.60;99.90;;;;;;4965478;28;20045;-76
2022/06/06 01:19:09;;;;;;;11.13;6.00;;;14.60;99.90;;;;;;4950558;28;20078;-78
2022/06/06 01:22:09;;;;;;;11.45;6.20;;;14.60;99.90;;;;;;4983203;28;20053;-78
2022/06/06 01:25:12;;;;;;;11.52;5.80;;;14.60;99.90;;;;;;4969244;28;20081;-75
2022/06/06 01:27:58;;;;;;;13.52;5.35;;;14.60;99.90;;;;;;4961724;28;20046;-77
2022/06/06 01:30:39;;;;;;;9.25;6.18;;;14.50;99.90;;;;;;4982100;28;20058;-77
2022/06/06 01:33:09;;;;;;;11.85;6.20;;;14.60;99.90;;;;;;4982916;28;20046;-77
2022/06/06 01:35:39;;;;;;;9.88;5.68;;;14.50;99.90;;;;;;4965568;28;20050;-77
2022/06/06 01:38:05;;;;;;;10.80;5.97;;;14.60;99.90;;;;;;4965085;28;20129;-77
2022/06/06 01:40:54;;;;;;;10.93;5.85;;;14.60;99.90;;;;;;4968257;28;20082;-76
2022/06/06 01:43:38;;;;;;;13.63;6.20;;;14.50;99.90;;;;;;4964586;28;20081;-77
2022/06/06 01:46:10;;;;;;;9.70;5.70;;;14.50;99.90;;;;;;4963083;28;20131;-77
2022/06/06 01:48:41;;;;;;;12.82;6.00;;;14.50;99.90;;;;;;4967289;28;20050;-77
2022/06/06 01:51:16;;;;;;;13.23;5.82;;;14.50;99.90;;;;;;4964958;28;20071;-77
2022/06/06 01:53:43;;;;;;;10.60;5.03;;;14.50;99.90;;;;;;4983209;28;20050;-77
2022/06/06 01:56:13;;;;;;;9.18;5.38;;;14.50;99.90;;;;;;4943131;28;20058;-77
2022/06/06 01:58:38;;;;;;;10.30;5.63;;;14.50;99.90;;;;;;4964704;28;20480;-78
2022/06/06 02:01:05;;;;;;;9.77;4.88;;;14.50;99.90;;;;;;4982761;28;20070;-78
2022/06/06 02:03:32;;;;;;;9.98;5.72;;;14.40;99.90;;;;;;4961660;28;20161;-78
2022/06/06 02:05:58;;;;;;;9.82;6.07;;;14.50;99.90;;;;;;4966061;28;20134;-78
2022/06/06 02:08:24;;;;;;;12.15;5.65;;;14.40;99.90;;;;;;4961790;28;20476;-78
2022/06/06 02:10:49;;;;;;;11.30;5.68;;;14.50;99.90;;;;;;4984542;28;20057;-78
2022/06/06 02:13:16;;;;;;;8.52;5.15;;;14.40;99.90;;;;;;4965329;28;20104;-78
2022/06/06 02:15:42;;;;;;;11.25;6.00;;;14.40;99.90;;;;;;4967523;28;20089;-78
2022/06/06 02:18:09;;;;;;;8.60;5.35;;;14.40;99.90;;;;;;4958946;28;20589;-78
2022/06/06 02:20:35;;;;;;;15.63;5.55;;;14.40;99.90;;;;;;4960108;28;20542;-78
2022/06/06 02:23:01;;;;;;;7.88;4.78;;;14.40;99.90;;;;;;4967331;28;20210;-78
2022/06/06 02:25:29;;;;;;;8.35;4.10;;;14.40;99.90;;;;;;4956103;28;20058;-79
2022/06/06 02:27:56;;;;;;;7.35;4.05;;;14.40;99.90;;;;;;4970199;28;20046;-78
2022/06/06 02:30:28;;;;;;;7.18;3.50;;;14.40;99.90;;;;;;4982689;28;20142;-78
2022/06/06 02:32:54;;;;;;;8.45;3.58;;;14.40;99.90;;;;;;4986989;28;20082;-78
2022/06/06 02:35:24;;;;;;;7.53;4.00;;;14.30;99.90;;;;;;4964420;28;20072;-79
2022/06/06 02:37:50;;;;;;;7.28;3.97;;;14.30;99.90;;;;;;4970220;28;20399;-78
2022/06/06 02:40:19;;;;;;;6.03;3.83;;;14.30;99.90;;;;;;4929784;28;20100;-77
2022/06/06 02:42:45;;;;;;;8.68;4.78;;;14.30;99.90;;;;;;4961740;28;20129;-77
2022/06/06 02:45:15;;;;;;;9.38;4.07;;;14.30;99.90;;;;;;4971719;28;20066;-77
2022/06/06 02:47:43;;;;;;;8.70;4.63;;;14.30;99.90;;;;;;4969606;28;20377;-77
2022/06/06 02:50:09;;;;;;;8.77;4.20;;;14.30;99.90;;;;;;4964980;28;20049;-77
2022/06/06 02:52:36;;;;;;;6.63;4.35;;;14.30;99.90;;;;;;4969868;28;20066;-77
2022/06/06 02:55:05;;;;;;;7.85;4.55;;;14.30;99.90;;;;;;4988363;28;20072;-76
2022/06/06 02:57:31;;;;;;;6.60;4.53;;;14.20;99.90;;;;;;4968896;28;20058;-76
2022/06/06 03:00:00;;;;;;;9.18;4.88;;;14.20;99.90;;;;;;4969080;28;20052;-77
2022/06/06 03:02:26;;;;;;;7.10;4.50;;;14.20;99.90;;;;;;4984798;28;20165;-78
2022/06/06 03:04:52;;;;;;;9.73;5.97;;;14.20;99.90;;;;;;4955104;28;20053;-77
2022/06/06 03:07:36;;;;;;;9.77;6.40;;;14.20;99.90;;;;;;4969780;28;20498;-77
2022/06/06 03:10:24;;;;;;;11.18;7.38;;;14.20;99.90;;;;;;4982549;28;20046;-77
2022/06/06 03:13:20;;;;;;;14.10;7.53;;;14.20;99.90;;;;;;4966764;28;20449;-77
2022/06/06 03:22:34;;;;;;;13.15;7.97;;;14.20;99.90;;;;;;4967758;28;20140;-77
2022/06/06 03:25:08;;;;;;;10.05;6.90;;;14.20;99.90;;;;;;4953426;28;20069;-77
2022/06/06 03:27:46;;;;;;;8.23;6.80;;;14.20;99.90;;;;;;4981141;28;20539;-77
2022/06/06 03:30:32;;;;;;;16.00;7.28;;;14.20;99.90;;;;;;4966299;28;20054;-76
2022/06/06 03:33:36;;;;;;;14.38;7.07;;;14.20;99.90;;;;;;4968191;28;20052;-77
2022/06/06 03:36:28;;;;;;;16.23;8.18;;;14.20;99.90;;;;;;4944385;28;20100;-77
2022/06/06 03:39:21;;;;;;;12.00;6.75;;;14.20;99.90;;;;;;4966355;28;20054;-77
2022/06/06 03:41:56;;;;;;;11.73;7.10;;;14.20;99.90;;;;;;4962282;28;20050;-77
2022/06/06 03:44:50;;;;;;;13.40;7.68;;;14.20;99.90;;;;;;4950023;28;20139;-77
2022/06/06 03:47:54;;;;;;;14.55;7.72;;;14.20;99.90;;;;;;4968504;28;20504;-77
2022/06/06 03:50:38;;;;;;;12.65;8.02;;;14.20;99.90;;;;;;4969845;28;20041;-77
2022/06/06 03:53:22;;;;;;;11.23;7.15;;;14.20;99.90;;;;;;4963440;28;20042;-77
2022/06/06 03:55:59;;;;;;;12.00;7.40;;;14.20;99.90;;;;;;4969600;28;20127;-77
2022/06/06 03:58:29;;;;;;;11.88;7.05;;;14.20;99.90;;;;;;4969542;28;20117;-77
2022/06/06 04:00:57;;;;;;;11.05;7.60;;;14.20;99.90;;;;;;4961322;28;20436;-77
2022/06/06 04:03:24;;;;;;;9.18;6.00;;;14.20;99.90;;;;;;4951419;28;20133;-77
2022/06/06 04:05:51;;;;;;;11.55;6.40;;;14.20;99.90;;;;;;4965355;28;20058;-77
2022/06/06 04:08:17;;;;;;;12.45;6.15;;;14.20;99.90;;;;;;4954713;28;20042;-78
2022/06/06 04:10:55;;;;;;;9.88;6.15;;;14.20;99.90;;;;;;4977505;28;20377;-78
2022/06/06 04:13:43;;;;;;;10.07;6.25;;;14.20;99.90;;;;;;4978196;28;20046;-78
2022/06/06 04:16:16;;;;;;;12.90;5.72;;;14.20;99.90;;;;;;4966505;28;20127;-78
2022/06/06 04:18:46;;;;;;;11.75;6.40;;;14.10;99.90;;;;;;4966021;28;20100;-78
2022/06/06 04:21:31;;;;;;;13.65;6.30;;;14.20;99.90;;;;;;4952583;28;20389;-78
2022/06/06 04:24:19;;;;;;;10.18;6.15;;;14.10;99.90;;;;;;4984047;28;20046;-78
2022/06/06 04:27:01;;;;;;;8.45;6.15;;;14.20;99.90;;;;;;4985430;28;20105;-78
2022/06/06 04:30:07;;;;;;;9.30;5.75;;;14.10;99.90;;;;;;4983153;28;20105;-78
2022/06/06 04:32:45;;;;;;;9.07;5.57;;;14.10;99.90;;;;;;4978091;28;20087;-79
2022/06/06 04:35:52;;;;;;;9.35;5.18;;;14.10;99.90;;;;;;4984204;28;20050;-77
2022/06/06 04:38:41;;;;;;;5.03;3.80;;;14.10;99.90;;;;;;4945480;28;20058;-77
2022/06/06 04:41:38;;;;;;;8.18;4.80;;;14.10;99.90;;;;;;4944809;28;20125;-77
2022/06/06 04:44:15;;;;;;;6.25;4.45;;;14.10;99.90;;;;;;4983464;28;20083;-77
2022/06/06 04:47:04;;;;;;;7.13;3.72;;;14.10;99.90;;;;;;4968041;28;20058;-77
2022/06/06 04:49:32;;;;;;;4.10;2.10;;;14.10;99.90;;;;;;4968163;28;20488;-77
2022/06/06 04:52:01;;;;;;;5.00;2.67;;;14.10;99.90;;;;;;4983574;28;20058;-78
2022/06/06 04:54:30;;;;;;;4.32;2.45;;;14.00;99.90;;;;;;4970071;28;20055;-78
2022/06/06 04:57:00;;;;;;;7.00;2.80;;;14.00;99.90;;;;;;4967762;28;20074;-78
2022/06/06 04:59:28;;;;;;;8.10;3.80;;;14.00;99.90;;;;;;4945554;28;20104;-78
2022/06/06 05:01:57;;;;;;;5.78;3.75;;;14.00;99.90;;;;;;4965895;28;20411;-78
2022/06/06 05:04:23;;;;;;;5.43;3.33;;;13.80;99.90;;;;;;4985918;28;20042;-77
2022/06/06 05:07:27;;;;;;;7.53;3.38;;;13.90;99.90;;;;;;4970656;28;20121;-78
2022/06/06 05:10:04;;;;;;;8.30;3.20;;;13.90;99.90;;;;;;4981901;28;20074;-83
2022/06/06 05:13:01;;;;;;;7.57;2.90;;;13.90;99.90;;;;;;4968743;28;20046;-76
2022/06/06 05:15:50;;;;;;;6.43;2.10;;;13.90;99.90;;;;;;4979550;28;20066;-77
2022/06/06 05:18:25;;;;;;;6.53;2.55;;;13.90;99.90;;;;;;4960570;28;20058;-78
2022/06/06 05:20:50;;;;;;;10.77;2.50;;;13.90;99.90;;;;;;4982564;28;20100;-77
2022/06/06 05:23:43;;;;;;;6.85;3.00;;;13.90;99.90;;;;;;4950124;28;20077;-77
2022/06/06 05:26:37;;;;;;;7.00;2.70;;;13.90;99.90;;;;;;4983340;28;20042;-76
2022/06/06 05:29:24;;;;;;;6.53;2.80;;;13.80;99.90;;;;;;4951803;28;20073;-76
2022/06/06 05:31:53;;;;;;;4.40;2.25;;;13.80;99.90;;;;;;4961934;28;20042;-76
2022/06/06 05:34:33;;;;;;;5.55;2.90;;;13.70;99.90;;;;;;4974241;28;20038;-76
2022/06/06 05:37:36;;;;;;;9.68;4.10;;;13.70;99.90;;;;;;4985779;28;20077;-78
2022/06/06 05:40:17;;;;;;;6.68;3.13;;;13.70;99.90;;;;;;4962616;28;20046;-79
2022/06/06 05:42:55;;;;;;;6.75;3.55;;;13.70;99.90;;;;;;4963113;28;20086;-79
2022/06/06 05:45:38;;;;;;;10.18;3.30;;;13.70;99.90;;;;;;4965133;28;20046;-79
2022/06/06 05:48:13;;;;;;;9.10;3.33;;;13.70;99.90;;;;;;4979627;28;20129;-79
2022/06/06 05:51:03;;;;;;;9.32;4.03;;;13.70;99.90;;;;;;4960892;28;20125;-80
2022/06/06 05:53:53;;;;;;;12.60;4.13;;;13.70;99.90;;;;;;4945693;28;20046;-81
2022/06/06 05:56:52;;;;;;;15.40;3.92;;;13.60;99.90;;;;;;4963650;28;20381;-83
2022/06/06 05:59:30;;;;;;;8.68;3.90;;;13.60;99.90;;;;;;4959685;28;20046;-81
2022/06/06 06:02:13;;;;;;;10.52;4.32;;;13.60;99.90;;;;;;4966378;28;20050;-78
2022/06/06 06:04:57;;;;;;;12.18;4.80;;;13.60;99.90;;;;;;4981493;28;21020;-80
2022/06/06 06:07:51;;;;;;;8.90;3.58;;;13.60;99.90;;;;;;4962623;28;20050;-80
2022/06/06 06:10:26;;;;;;;13.52;4.35;;;13.60;99.90;;;;;;4986454;28;20097;-80
2022/06/06 06:13:10;;;;;;;12.85;4.25;;;13.50;99.90;;;;;;4973635;28;20046;-79
2022/06/06 06:15:41;;;;;;;12.60;4.55;;;13.50;99.90;;;;;;4976192;28;20042;-79
2022/06/06 06:18:51;;;;;;;18.67;4.57;;;13.50;99.90;;;;;;4967783;28;20050;-83
2022/06/06 06:21:33;;;;;;;10.05;2.70;;;13.60;99.90;;;;;;4939890;28;20058;-80
2022/06/06 06:24:06;;;;;;;9.98;3.15;;;13.50;99.90;;;;;;4966163;28;20068;-79
2022/06/06 06:26:33;;;;;;;7.53;3.00;;;13.60;99.90;;;;;;4965537;28;20054;-78
2022/06/06 06:29:03;;;;;;;10.45;3.13;;;13.50;99.90;;;;;;4965777;28;20088;-78
2022/06/06 06:31:28;;;;;;;11.15;3.38;;;13.50;99.90;;;;;;4969865;28;20046;-76
2022/06/06 06:34:15;;;;;;;9.90;3.50;;;13.50;99.90;;;;;;4971261;28;20527;-77
2022/06/06 06:36:45;;;;;;;9.25;3.20;;;13.50;99.90;;;;;;4970613;28;20054;-78
2022/06/06 06:39:24;;;;;;;12.20;3.15;;;13.50;99.90;;;;;;4947706;28;20125;-78
2022/06/06 06:42:08;;;;;;;9.40;2.80;;;13.50;99.90;;;;;;4970224;28;20054;-77
2022/06/06 06:44:39;;;;;;;8.82;2.65;;;13.40;99.90;;;;;;4963163;28;20134;-78
2022/06/06 06:47:18;;;;;;;7.60;2.30;;;13.50;99.90;;;;;;4968643;28;20149;-77
2022/06/06 06:49:53;;;;;;;8.55;2.90;;;13.40;99.90;;;;;;4969813;28;20511;-76
2022/06/06 06:52:44;;;;;;;9.68;3.05;;;13.40;99.90;;;;;;4955054;28;20054;-78
2022/06/06 06:55:25;;;;;;;11.68;3.10;;;13.40;99.90;;;;;;4966648;28;20145;-78
2022/06/06 06:58:05;;;;;;;6.90;2.42;;;13.40;99.90;;;;;;4952742;28;20046;-78
2022/06/06 07:00:47;;;;;;;7.15;2.50;;;13.50;99.90;;;;;;4987607;28;20086;-78
2022/06/06 07:09:31;;;;;;;8.70;2.63;;;13.50;99.90;;;;;;4969648;28;20055;-79
2022/06/06 07:12:28;;;;;;;8.43;2.63;;;13.60;99.90;;;;;;4965980;28;20369;-79
2022/06/06 07:15:12;;;;;;;6.78;2.63;;;13.60;99.90;;;;;;4962915;28;20061;-79
2022/06/06 07:17:43;;;;;;;7.72;2.33;;;13.60;99.90;;;;;;4984284;28;20042;-79
2022/06/06 07:20:12;;;;;;;7.82;2.60;;;13.70;99.90;;;;;;4984269;28;20492;-78
2022/06/06 07:22:59;;;;;;;4.75;2.22;;;13.70;99.90;;;;;;4967965;28;20035;-78
2022/06/06 07:25:27;;;;;;;7.45;2.00;;;13.70;99.90;;;;;;4966780;28;20042;-78
2022/06/06 07:27:53;;;;;;;5.32;2.13;;;13.80;99.90;;;;;;4966919;28;20046;-79
2022/06/06 07:30:24;;;;;;;5.85;2.80;;;13.80;99.90;;;;;;4982912;28;20042;-78
2022/06/06 07:33:16;;;;;;;6.63;2.50;;;13.80;99.90;;;;;;4967098;28;20799;-79
2022/06/06 07:35:53;;;;;;;5.05;2.47;;;13.80;99.90;;;;;;4952384;28;20064;-78
2022/06/06 07:38:36;;;;;;;6.13;2.85;;;13.80;99.90;;;;;;4971020;28;20042;-78
2022/06/06 07:41:11;;;;;;;4.82;2.13;;;13.80;99.90;;;;;;4966406;28;20052;-78
2022/06/06 07:43:56;;;;;;;5.35;2.17;;;13.80;99.90;;;;;;4953363;28;20054;-80
2022/06/06 07:46:34;;;;;;;7.88;2.30;;;13.80;99.90;;;;;;4965487;28;20311;-78
2022/06/06 07:49:04;;;;;;;5.70;2.13;;;13.80;99.90;;;;;;4962875;28;20496;-78
2022/06/06 07:51:43;;;;;;;7.05;2.30;;;13.80;99.90;;;;;;4969516;28;20149;-77
2022/06/06 07:54:24;;;;;;;4.95;2.10;;;13.90;99.90;;;;;;4982918;28;20046;-77
2022/06/06 07:56:55;;;;;;;3.10;1.98;;;13.90;99.90;;;;;;4983631;28;21049;-78
2022/06/06 07:59:40;;;;;;;4.78;2.00;;;13.90;99.90;;;;;;4964219;28;20448;-77
2022/06/06 08:02:31;;;;;;;5.30;2.38;;;13.90;99.90;;;;;;4968699;28;20082;-78
2022/06/06 08:04:59;;;;;;;8.80;2.03;;;13.90;99.90;;;;;;4979258;28;20161;-79
2022/06/06 08:07:47;;;;;;;5.85;2.58;;;13.90;99.90;;;;;;4956832;28;20136;-78
2022/06/06 08:10:34;;;;;;;5.75;2.30;;;13.90;99.90;;;;;;4964845;28;20046;-77
2022/06/06 08:13:20;;;;;;;4.22;2.08;;;13.90;99.90;;;;;;4961991;28;20057;-79
2022/06/06 08:16:05;;;;;;;6.10;2.40;;;14.00;99.90;;;;;;4965562;28;20057;-77
2022/06/06 08:19:12;;;;;;;4.90;2.58;;;14.00;99.90;;;;;;4975455;28;20046;-77
2022/06/06 08:21:40;;;;;;;7.88;2.75;;;14.10;99.90;;;;;;4969716;28;20392;-79
2022/06/06 08:24:10;;;;;;;6.18;2.67;;;14.20;99.90;;;;;;4951252;28;20088;-77
2022/06/06 08:26:39;;;;;;;6.93;2.30;;;14.30;99.90;;;;;;4952937;28;20077;-78
2022/06/06 08:29:06;;;;;;;7.30;3.03;;;14.40;99.90;;;;;;4970199;28;20043;-78
2022/06/06 08:31:32;;;;;;;7.30;2.63;;;14.40;99.90;;;;;;4971287;28;20046;-78
2022/06/06 08:33:58;;;;;;;4.90;2.70;;;14.50;99.90;;;;;;4953756;28;20061;-78
2022/06/06 08:36:35;;;;;;;7.65;3.47;;;14.50;99.90;;;;;;4976186;28;20104;-80
2022/06/06 08:39:45;;;;;;;5.10;2.97;;;14.50;99.90;;;;;;4968723;28;20049;-77
2022/06/06 08:42:38;;;;;;;5.35;3.40;;;14.60;99.90;;;;;;4959304;28;20059;-78
2022/06/06 08:45:12;;;;;;;7.03;3.13;;;14.60;99.90;;;;;;4943546;29;20134;-81
2022/06/06 08:48:12;;;;;;;7.80;3.42;;;14.60;99.90;;;;;;4962251;28;20062;-78
2022/06/06 08:50:56;;;;;;;7.72;3.85;;;14.60;99.90;;;;;;4954960;28;20042;-78
2022/06/06 08:53:58;;;;;;;7.60;3.40;;;14.50;99.90;;;;;;4981655;28;20477;-79
2022/06/06 08:56:47;;;;;;;7.22;3.38;;;14.50;99.90;;;;;;4984612;28;20440;-78
2022/06/06 08:59:37;;;;;;;6.80;3.28;;;14.50;99.90;;;;;;4978586;28;20094;-77
2022/06/06 09:02:42;;;;;;;6.22;3.33;;;14.50;99.90;;;;;;4967649;28;20082;-78
2022/06/06 09:05:32;;;;;;;10.07;3.40;;;14.50;99.90;;;;;;4984175;28;20062;-78
2022/06/06 09:08:36;;;;;;;9.63;3.58;;;14.50;99.90;;;;;;4967270;28;20093;-77
2022/06/06 09:11:40;;;;;;;8.23;3.70;;;14.50;99.90;;;;;;4961134;28;20054;-78
2022/06/06 09:14:30;;;;;;;7.10;3.63;;;14.50;99.90;;;;;;4951500;28;20127;-78
2022/06/06 09:16:59;;;;;;;7.78;3.60;;;14.50;99.90;;;;;;4964229;28;20544;-78
2022/06/06 09:19:39;;;;;;;6.85;3.40;;;14.40;99.90;;;;;;4962730;28;20314;-79
2022/06/06 09:22:16;;;;;;;7.78;3.55;;;14.30;99.90;;;;;;4979528;28;20058;-77
2022/06/06 09:25:13;;;;;;;9.38;3.72;;;14.20;99.90;;;;;;4980935;28;20603;-78
2022/06/06 09:27:39;;;;;;;;;;;14.10;99.90;;;;;;4969502;28;20125;-80
2022/06/06 09:30:33;;;;;;;14.75;4.93;;;14.00;99.90;;;;;;4957364;28;19944;-78
2022/06/06 09:33:43;;;;;;;12.88;4.07;;;13.90;99.90;;;;;;4979520;28;20153;-83
2022/06/06 09:36:23;;;;;;;13.05;4.65;;;13.90;99.90;;;;;;4957161;28;20508;-76
2022/06/06 09:39:19;;;;;;;13.27;4.25;;;13.80;99.90;;;;;;4966942;28;20053;-79
2022/06/06 09:42:06;;;;;;;14.63;4.45;;;13.70;99.90;;;;;;4959471;28;20571;-75
2022/06/06 09:45:02;;;;;;;14.10;4.22;;;14.20;99.90;;;;;;4962338;28;20054;-79
2022/06/06 09:47:40;;;;;;;10.23;3.92;;;13.70;99.90;;;;;;4956945;28;20500;-77
2022/06/06 09:50:37;;;;;;;15.57;4.13;;;13.70;99.90;;;;;;4960189;28;20046;-77
2022/06/06 09:53:30;;;;;;;16.90;4.55;;;13.70;99.90;;;;;;4958988;28;20073;-76
2022/06/06 09:59:39;;;;;;;18.65;5.72;;;13.50;99.90;;;;;;4924624;28;1116024;-77
2022/06/06 10:02:05;;;;;;;19.10;5.30;;;13.60;99.90;;;;;;4983084;28;20046;-76
2022/06/06 10:05:21;;;;;;;12.68;4.70;;;13.60;99.90;;;;;;4963015;28;20046;-77
2022/06/06 10:07:53;;;;;;;11.48;4.10;;;13.60;99.90;;;;;;4929771;28;20141;-78
2022/06/06 10:10:40;;;;;;;15.10;4.50;;;13.60;99.90;;;;;;4947915;28;20042;-80
2022/06/06 10:13:09;;;;;;;14.13;4.03;;;13.60;99.90;;;;;;4982436;28;20082;-80
2022/06/06 10:15:41;;;;;;;10.95;3.90;;;13.60;99.90;;;;;;4979798;28;20042;-77
2022/06/06 10:18:20;;;;;;;15.15;4.82;;;13.60;99.90;;;;;;4966686;28;20500;-77
2022/06/06 10:20:58;;;;;;;14.18;4.10;;;13.60;99.90;;;;;;4962354;28;20109;-77
2022/06/06 10:23:48;;;;;;;16.42;4.13;;;13.60;99.90;;;;;;4965938;28;20057;-78
2022/06/06 10:26:35;;;;;;;10.48;3.60;;;13.60;99.90;;;;;;4965514;28;20082;-81
2022/06/06 10:29:11;;;;;;;9.07;3.40;;;13.60;99.90;;;;;;4978552;28;20464;-76
2022/06/06 10:31:59;;;;;;;6.40;4.07;;;13.60;99.90;;;;;;4963477;28;20114;-76
2022/06/06 10:34:59;;;;;;;8.18;3.63;;;13.60;99.90;;;;;;4951846;28;20058;-77
2022/06/06 10:38:03;;;;;;;6.13;4.05;;;13.60;99.90;;;;;;4979673;28;20511;-77
2022/06/06 10:40:50;;;;;;;6.32;3.47;;;13.50;99.90;;;;;;4975766;28;20077;-75
2022/06/06 10:43:19;;;;;;;7.18;3.70;;;13.50;99.90;;;;;;4962042;28;20062;-77
2022/06/06 10:45:52;;;;;;;6.28;3.58;;;13.60;99.90;;;;;;4979488;28;20046;-76
2022/06/06 10:48:41;;;;;;;6.97;3.00;;;13.60;99.90;;;;;;4982306;28;20046;-77
2022/06/06 10:51:41;;;;;;;8.70;3.80;;;13.60;99.90;;;;;;4969249;28;21553;-77
2022/06/06 10:54:33;;;;;;;9.00;3.17;;;13.60;99.90;;;;;;4969523;28;20503;-78
2022/06/06 10:57:35;;;;;;;6.72;3.83;;;13.60;99.90;;;;;;4966788;28;20579;-77
2022/06/06 11:00:31;;;;;;;10.57;4.13;;;13.60;99.90;;;;;;4967905;28;20054;-78
2022/06/06 11:03:14;;;;;;;8.65;4.35;;;13.70;99.90;;;;;;4979510;28;20081;-77
2022/06/06 11:06:05;;;;;;;6.95;4.07;;;13.60;99.90;;;;;;4984220;28;20589;-79
2022/06/06 11:08:43;;;;;;;6.18;3.10;;;13.60;99.90;;;;;;4971424;28;20109;-79
2022/06/06 11:11:20;;;;;;;9.07;3.78;;;13.60;99.90;;;;;;4954397;28;20129;-76
2022/06/06 11:14:16;;;;;;;8.40;3.75;;;13.60;99.90;;;;;;4965438;28;20061;-77
2022/06/06 11:16:57;;;;;;;10.70;4.13;;;13.60;99.90;;;;;;4983397;28;20064;-79
2022/06/06 11:19:47;;;;;;;10.85;4.00;;;13.60;99.90;;;;;;4970173;28;20058;-78
2022/06/06 11:22:34;;;;;;;7.50;3.63;;;13.60;99.90;;;;;;4985184;28;20100;-77
2022/06/06 11:26:03;;;;;;;5.57;3.00;;;13.60;99.90;;;;;;4980766;28;20137;-79
2022/06/06 11:28:31;;;;;;;9.68;3.65;;;13.60;99.90;;;;;;4968570;28;20121;-78
2022/06/06 11:31:36;;;;;;;6.75;3.40;;;13.60;99.90;;;;;;4982754;28;20085;-77
2022/06/06 11:34:32;;;;;;;4.93;2.88;;;13.60;99.90;;;;;;4969251;28;20053;-79
2022/06/06 11:37:48;;;;;;;5.22;3.15;;;13.70;99.90;;;;;;4979976;28;20061;-78
2022/06/06 11:41:00;;;;;;;8.68;2.65;;;13.60;99.90;;;;;;4948879;28;20275;-78
2022/06/06 11:43:51;;;;;;;7.05;2.92;;;13.60;99.90;;;;;;4965561;28;20062;-77
2022/06/06 11:46:32;;;;;;;4.25;2.00;;;13.60;99.90;;;;;;4966174;28;20109;-80
2022/06/06 11:49:13;;;;;;;4.80;2.00;;;13.60;99.90;;;;;;4952489;28;20057;-77
2022/06/06 11:52:05;;;;;;;3.53;1.67;;;13.70;99.90;;;;;;4982437;28;20058;-78
2022/06/06 11:54:50;;;;;;;4.28;1.25;;;13.70;99.90;;;;;;4964062;28;20054;-79
2022/06/06 11:57:43;;;;;;;1.95;1.23;;;13.60;99.90;;;;;;4967063;28;20052;-80
2022/06/06 12:00:12;;;;;;;2.40;1.30;;;13.60;99.90;;;;;;4963843;28;20046;-78
2022/06/06 12:03:02;;;;;;;3.25;1.40;;;13.60;99.90;;;;;;4980626;28;20133;-78
2022/06/06 12:05:31;;;;;;;4.60;1.50;;;13.70;99.90;;;;;;4980637;28;20108;-77
2022/06/06 12:08:25;;;;;;;2.75;1.33;;;13.70;99.90;;;;;;4967459;28;20046;-79
2022/06/06 12:11:03;;;;;;;3.20;1.30;;;13.70;99.90;;;;;;4985745;28;20066;-78
2022/06/06 12:13:45;;;;;;;4.00;1.38;;;13.80;99.90;;;;;;4981020;28;20050;-79
2022/06/06 12:16:37;;;;;;;5.80;1.30;;;13.90;99.90;;;;;;4966310;28;20054;-78
2022/06/06 12:19:16;;;;;;;3.78;1.30;;;14.00;99.90;;;;;;4966906;28;20046;-79
2022/06/06 12:22:05;;;;;;;4.65;1.48;;;14.00;99.90;;;;;;4962125;28;20049;-84
2022/06/06 12:24:55;;;;;;;3.60;1.10;;;14.10;99.90;;;;;;4965124;28;20049;-81
2022/06/06 12:27:27;;;;;;;3.38;1.08;;;14.10;99.90;;;;;;4966735;28;20065;-79
2022/06/06 12:30:11;;;;;;;3.33;1.10;;;14.20;99.90;;;;;;4966355;28;20054;-78
2022/06/06 12:32:50;;;;;;;4.10;1.42;;;14.10;99.90;;;;;;4961959;28;20388;-79
2022/06/06 12:35:38;;;;;;;6.47;1.20;;;14.10;99.90;;;;;;4965750;28;20054;-80
2022/06/06 12:38:32;;;;;;;3.80;1.23;;;14.10;99.90;;;;;;4962751;28;20050;-78
2022/06/06 12:41:11;;;;;;;5.03;1.38;;;14.10;99.90;;;;;;4963892;28;20129;-77
2022/06/06 12:43:37;;;;;;;4.53;0.95;;;14.10;99.90;;;;;;4949120;28;20050;-80
2022/06/06 12:46:21;;;;;;;6.72;1.35;;;14.00;99.90;;;;;;4967275;28;20385;-80
2022/06/06 12:49:18;;;;;;;4.32;1.15;;;13.90;99.90;;;;;;4945528;28;20050;-80
2022/06/06 12:51:44;;;;;;;;;;;14.00;99.90;;;;;;4965210;28;20479;-79
2022/06/06 12:54:30;;;;;;;7.73;1.17;;;13.90;99.90;;;;;;4981487;28;20044;-81
2022/06/06 12:57:03;;;;;;;4.82;1.13;;;13.90;99.90;;;;;;4982313;28;20087;-79
2022/06/06 12:59:41;;;;;;;5.55;1.20;;;13.90;99.90;;;;;;4985420;28;20479;-81
2022/06/06 13:02:29;;;;;;;4.43;1.20;;;13.80;99.90;;;;;;4952256;28;20749;-80
2022/06/06 13:05:37;;;;;;;5.95;1.17;;;13.80;99.90;;;;;;4986111;28;20065;-80
2022/06/06 13:08:06;;;;;;;3.10;1.20;;;13.80;99.90;;;;;;4960554;28;20083;-79
2022/06/06 13:10:56;;;;;;;5.03;1.42;;;13.90;99.90;;;;;;4977630;28;20085;-81
2022/06/06 13:13:22;;;;;;;7.25;1.63;;;13.90;99.90;;;;;;4960427;28;20298;-80
2022/06/06 13:16:18;;;;;;;4.18;1.40;;;14.00;99.90;;;;;;4977917;28;20487;-79
2022/06/06 13:19:15;;;;;;;7.57;1.80;;;14.00;99.90;;;;;;4944444;28;20542;-78
2022/06/06 13:22:02;;;;;;;4.47;1.73;;;14.10;99.90;;;;;;4964979;28;20141;-80
2022/06/06 13:24:56;;;;;;;2.70;1.25;;;14.10;99.90;;;;;;4983068;28;20101;-79
2022/06/06 13:27:51;;;;;;;2.70;1.10;;;14.00;99.90;;;;;;4948248;28;20088;-81
2022/06/06 13:30:21;;;;;;;1.88;1.08;;;13.90;99.90;;;;;;4955158;28;20046;-79
2022/06/06 13:32:56;;;;;;;2.00;0.95;;;13.80;99.90;;;;;;4977741;28;20133;-79
2022/06/06 13:35:32;;;;;;;1.70;1.00;;;13.70;99.90;;;;;;4951827;28;20061;-79
2022/06/06 13:38:10;;;;;;;2.13;1.00;;;13.70;99.90;;;;;;4964663;28;20054;-77
2022/06/06 13:40:49;;;;;;;2.28;1.00;;;13.70;99.90;;;;;;4967073;28;20054;-79
2022/06/06 13:43:45;;;;;;;2.60;1.30;;;13.60;99.90;;;;;;4975898;28;20090;-78
2022/06/06 13:46:20;;;;;;;2.95;1.65;;;13.70;99.90;;;;;;4960318;28;20053;-79
2022/06/06 13:49:09;;;;;;;2.90;1.40;;;13.60;99.90;;;;;;4947982;28;20051;-78
2022/06/06 13:51:54;;;;;;;4.05;1.30;;;13.50;99.90;;;;;;4961963;28;20073;-78
2022/06/06 13:54:37;;;;;;;3.23;1.60;;;13.50;99.90;;;;;;4959047;28;20100;-78
2022/06/06 13:57:23;;;;;;;2.72;1.60;;;13.50;99.90;;;;;;4962739;28;20531;-78
2022/06/06 14:00:02;;;;;;;3.20;1.60;;;13.50;99.90;;;;;;4958789;28;20074;-78
2022/06/06 14:02:53;;;;;;;3.15;1.40;;;13.40;99.90;;;;;;4979774;28;20058;-78
2022/06/06 14:05:25;;;;;;;3.42;1.60;;;13.40;99.90;;;;;;4964931;28;20144;-78
2022/06/06 14:08:16;;;;;;;3.22;1.70;;;13.30;99.90;;;;;;4964344;28;20500;-78
2022/06/06 14:11:05;;;;;;;4.95;2.00;;;13.30;99.90;;;;;;4966317;28;20050;-78